Time,TemperatureF,DewpointF,PressureIn,WindDirection,WindDirectionDegrees,WindSpeedMPH,WindSpeedGustMPH,Humidity,HourlyPrecipIn,Conditions,Clouds,dailyrainin,SoftwareType,DateUTC
2013-04-11 00:03:00,66.0,58.0,30.01,South,171,0.0,2.0,75,0.00,,,0.00,,2013-04-11 04:03:00,
2013-04-11 00:13:00,66.0,58.0,30.01,WSW,255,0.0,4.0,75,0.00,,,0.00,,2013-04-11 04:13:00,
2013-04-11 00:22:00,66.0,58.0,30.01,WSW,255,0.0,4.0,75,0.00,,,0.00,,2013-04-11 04:22:00,
2013-04-11 00:33:00,66.0,58.0,30.01,SSE,161,0.0,2.0,75,0.00,,,0.00,,2013-04-11 04:33:00,
2013-04-11 00:43:00,66.0,58.0,30.01,SSE,161,0.0,2.0,75,0.00,,,0.00,,2013-04-11 04:43:00,
2013-04-11 00:53:00,66.0,58.0,30.02,SW,221,1.0,5.0,75,0.00,,,0.00,,2013-04-11 04:53:00,
2013-04-11 01:02:00,66.0,57.0,30.02,South,175,0.0,4.0,74,0.00,,,0.00,,2013-04-11 05:02:00,
2013-04-11 01:13:00,66.0,57.0,30.02,South,175,0.0,4.0,74,0.00,,,0.00,,2013-04-11 05:13:00,
2013-04-11 01:23:00,67.0,58.0,30.02,SW,222,0.0,4.0,73,0.00,,,0.00,,2013-04-11 05:23:00,
2013-04-11 01:32:00,66.0,57.0,30.02,SW,222,0.0,1.0,74,0.00,,,0.00,,2013-04-11 05:32:00,
2013-04-11 01:42:00,66.0,57.0,30.02,SW,222,0.0,1.0,74,0.00,,,0.00,,2013-04-11 05:42:00,
2013-04-11 01:52:00,63.0,56.0,30.03,SW,222,0.0,2.0,79,0.00,,,0.00,,2013-04-11 05:52:00,
2013-04-11 02:02:00,62.0,56.0,30.03,SW,222,0.0,1.0,81,0.00,,,0.00,,2013-04-11 06:02:00,
2013-04-11 02:12:00,62.0,56.0,30.03,SW,222,0.0,1.0,81,0.00,,,0.00,,2013-04-11 06:12:00,
2013-04-11 02:22:00,61.0,56.0,30.02,SW,222,0.0,1.0,85,0.00,,,0.00,,2013-04-11 06:22:00,
2013-04-11 02:32:00,60.0,55.0,30.01,South,186,0.0,3.0,84,0.00,,,0.00,,2013-04-11 06:32:00,
2013-04-11 02:42:00,60.0,55.0,30.01,South,186,0.0,3.0,84,0.00,,,0.00,,2013-04-11 06:42:00,
2013-04-11 02:52:00,59.0,55.0,30.02,South,186,0.0,1.0,86,0.00,,,0.00,,2013-04-11 06:52:00,
2013-04-11 03:02:00,59.0,55.0,30.02,South,186,0.0,0.0,87,0.00,,,0.00,,2013-04-11 07:02:00,
2013-04-11 03:12:00,59.0,55.0,30.02,South,186,0.0,0.0,87,0.00,,,0.00,,2013-04-11 07:12:00,
2013-04-11 03:22:00,58.0,54.0,30.01,South,186,0.0,0.0,88,0.00,,,0.00,,2013-04-11 07:22:00,
2013-04-11 03:32:00,58.0,54.0,30.01,South,186,0.0,1.0,88,0.00,,,0.00,,2013-04-11 07:32:00,
2013-04-11 03:43:00,58.0,54.0,30.01,South,186,0.0,1.0,88,0.00,,,0.00,,2013-04-11 07:43:00,
2013-04-11 03:52:00,58.0,55.0,30.01,South,187,0.0,2.0,91,0.00,,,0.00,,2013-04-11 07:52:00,
2013-04-11 04:03:00,58.0,55.0,30.01,West,278,0.0,2.0,90,0.00,,,0.00,,2013-04-11 08:03:00,
2013-04-11 04:12:00,58.0,55.0,30.01,West,278,0.0,2.0,90,0.00,,,0.00,,2013-04-11 08:12:00,
2013-04-11 04:22:00,60.0,57.0,30.01,West,267,0.0,4.0,89,0.00,,,0.00,,2013-04-11 08:22:00,
2013-04-11 04:32:00,61.0,57.0,30.01,SSW,210,0.0,2.0,88,0.00,,,0.00,,2013-04-11 08:32:00,
2013-04-11 04:42:00,61.0,57.0,30.01,SSW,210,0.0,2.0,88,0.00,,,0.00,,2013-04-11 08:42:00,
2013-04-11 04:52:00,61.0,57.0,30.01,South,188,0.0,3.0,87,0.00,,,0.00,,2013-04-11 08:52:00,
2013-04-11 05:02:00,61.0,57.0,30.01,South,185,0.0,4.0,87,0.00,,,0.00,,2013-04-11 09:02:00,
2013-04-11 05:12:00,61.0,57.0,30.01,South,185,0.0,4.0,87,0.00,,,0.00,,2013-04-11 09:12:00,
2013-04-11 05:22:00,61.0,57.0,30.00,SSW,209,0.0,2.0,88,0.00,,,0.00,,2013-04-11 09:22:00,
2013-04-11 05:33:00,61.0,57.0,30.00,SSW,209,0.0,0.0,87,0.00,,,0.00,,2013-04-11 09:33:00,
2013-04-11 05:43:00,61.0,57.0,30.00,SSW,209,0.0,0.0,87,0.00,,,0.00,,2013-04-11 09:43:00,
2013-04-11 05:53:00,60.0,57.0,30.01,SW,220,0.0,3.0,89,0.00,,,0.00,,2013-04-11 09:53:00,
2013-04-11 06:02:00,60.0,57.0,30.01,SW,220,0.0,1.0,90,0.00,,,0.00,,2013-04-11 10:02:00,
2013-04-11 06:13:00,59.0,56.0,30.01,SSW,207,0.0,3.0,89,0.00,,,0.00,,2013-04-11 10:13:00,
2013-04-11 06:23:00,59.0,56.0,30.01,SSW,207,0.0,3.0,89,0.00,,,0.00,,2013-04-11 10:23:00,
2013-04-11 06:32:00,59.0,56.0,30.01,SSW,213,1.0,3.0,91,0.00,,,0.00,,2013-04-11 10:32:00,
2013-04-11 06:42:00,59.0,56.0,30.01,SSW,213,1.0,3.0,91,0.00,,,0.00,,2013-04-11 10:42:00,
2013-04-11 06:52:00,60.0,57.0,30.01,South,191,0.0,1.0,91,0.00,,,0.00,,2013-04-11 10:52:00,
2013-04-11 07:03:00,60.0,57.0,30.01,South,191,0.0,1.0,91,0.00,,,0.00,,2013-04-11 11:03:00,
2013-04-11 07:12:00,60.0,57.0,30.02,SSE,163,1.0,4.0,91,0.00,,,0.00,,2013-04-11 11:12:00,
2013-04-11 07:23:00,61.0,58.0,30.02,SSE,156,2.0,5.0,91,0.00,,,0.00,,2013-04-11 11:23:00,
2013-04-11 07:32:00,61.0,58.0,30.02,SSE,167,2.0,6.0,91,0.00,,,0.00,,2013-04-11 11:32:00,
2013-04-11 07:43:00,61.0,58.0,30.02,SSE,167,2.0,6.0,91,0.00,,,0.00,,2013-04-11 11:43:00,
2013-04-11 07:53:00,61.0,58.0,30.02,WSW,247,2.0,7.0,91,0.00,,,0.00,,2013-04-11 11:53:00,
2013-04-11 08:02:00,61.0,58.0,30.03,SSW,209,1.0,4.0,91,0.00,,,0.00,,2013-04-11 12:02:00,
2013-04-11 08:13:00,61.0,58.0,30.03,SSW,209,1.0,4.0,91,0.00,,,0.00,,2013-04-11 12:13:00,
2013-04-11 08:22:00,62.0,59.0,30.03,WNW,294,2.0,5.0,91,0.00,,,0.00,,2013-04-11 12:22:00,
2013-04-11 08:32:00,62.0,59.0,30.03,South,174,1.0,5.0,90,0.00,,,0.00,,2013-04-11 12:32:00,
2013-04-11 08:43:00,62.0,59.0,30.03,South,174,1.0,5.0,90,0.00,,,0.00,,2013-04-11 12:43:00,
2013-04-11 08:52:00,63.0,60.0,30.03,SSW,204,2.0,5.0,89,0.00,,,0.00,,2013-04-11 12:52:00,
2013-04-11 09:02:00,63.0,60.0,30.03,WSW,240,1.0,4.0,89,0.00,,,0.00,,2013-04-11 13:02:00,
2013-04-11 09:13:00,64.0,60.0,30.03,South,188,1.0,4.0,88,0.00,,,0.00,,2013-04-11 13:13:00,
2013-04-11 09:23:00,64.0,60.0,30.03,South,188,1.0,4.0,88,0.00,,,0.00,,2013-04-11 13:23:00,
2013-04-11 09:32:00,65.0,61.0,30.03,South,180,2.0,6.0,87,0.00,,,0.00,,2013-04-11 13:32:00,
2013-04-11 09:43:00,65.0,61.0,30.03,South,180,2.0,6.0,87,0.00,,,0.00,,2013-04-11 13:43:00,
2013-04-11 09:54:00,66.0,61.0,30.03,West,269,2.0,7.0,84,0.00,,,0.00,,2013-04-11 13:54:00,
2013-04-11 10:03:00,67.0,62.0,30.03,WSW,248,2.0,4.0,83,0.00,,,0.00,,2013-04-11 14:03:00,
2013-04-11 10:12:00,67.0,62.0,30.03,WSW,248,2.0,4.0,83,0.00,,,0.00,,2013-04-11 14:12:00,
2013-04-11 10:22:00,68.0,62.0,30.03,West,270,4.0,8.0,80,0.00,,,0.00,,2013-04-11 14:22:00,
2013-04-11 10:32:00,69.0,63.0,30.02,SSE,163,1.0,9.0,80,0.00,,,0.00,,2013-04-11 14:32:00,
2013-04-11 10:42:00,69.0,63.0,30.02,SSE,163,1.0,9.0,80,0.00,,,0.00,,2013-04-11 14:42:00,
2013-04-11 10:53:00,69.0,63.0,30.02,South,176,5.0,11.0,80,0.00,,,0.00,,2013-04-11 14:53:00,
2013-04-11 11:02:00,69.0,63.0,30.02,WSW,249,1.0,8.0,80,0.00,,,0.00,,2013-04-11 15:02:00,
2013-04-11 11:12:00,69.0,62.0,30.02,SSE,155,7.0,10.0,79,0.00,,,0.00,,2013-04-11 15:12:00,
2013-04-11 11:22:00,69.0,62.0,30.02,SSE,155,7.0,10.0,79,0.00,,,0.00,,2013-04-11 15:22:00,
2013-04-11 11:32:00,70.0,63.0,30.02,SSW,211,7.0,14.0,78,0.00,,,0.00,,2013-04-11 15:32:00,
2013-04-11 11:43:00,70.0,63.0,30.02,SSW,211,7.0,14.0,78,0.00,,,0.00,,2013-04-11 15:43:00,
2013-04-11 11:53:00,73.0,64.0,30.01,SSE,153,6.0,13.0,73,0.00,,,0.00,,2013-04-11 15:53:00,
2013-04-11 12:02:00,73.0,64.0,30.01,SW,233,3.0,14.0,73,0.00,,,0.00,,2013-04-11 16:02:00,
2013-04-11 12:13:00,73.0,64.0,30.01,SW,233,3.0,14.0,73,0.00,,,0.00,,2013-04-11 16:13:00,
2013-04-11 12:23:00,74.0,64.0,30.01,SSW,196,3.0,10.0,70,0.00,,,0.00,,2013-04-11 16:23:00,
2013-04-11 12:32:00,74.0,63.0,30.00,South,186,6.0,13.0,69,0.00,,,0.00,,2013-04-11 16:32:00,
2013-04-11 12:42:00,75.0,63.0,30.00,SSW,210,6.0,14.0,66,0.00,,,0.00,,2013-04-11 16:42:00,
2013-04-11 12:53:00,75.0,63.0,30.00,SSW,210,6.0,14.0,66,0.00,,,0.00,,2013-04-11 16:53:00,
2013-04-11 13:02:00,75.0,62.0,29.99,SW,219,5.0,14.0,65,0.00,,,0.00,,2013-04-11 17:02:00,
2013-04-11 13:13:00,75.0,62.0,29.99,SW,219,5.0,14.0,65,0.00,,,0.00,,2013-04-11 17:13:00,
2013-04-11 13:23:00,76.0,63.0,29.97,SE,144,4.0,14.0,64,0.00,,,0.00,,2013-04-11 17:23:00,
2013-04-11 13:33:00,76.0,62.0,29.97,South,182,9.0,14.0,62,0.00,,,0.00,,2013-04-11 17:33:00,
2013-04-11 13:43:00,76.0,62.0,29.97,South,182,9.0,14.0,62,0.00,,,0.00,,2013-04-11 17:43:00,
2013-04-11 13:53:00,77.0,63.0,29.96,SSE,155,5.0,14.0,61,0.00,,,0.00,,2013-04-11 17:53:00,
2013-04-11 14:03:00,77.0,62.0,29.96,South,188,10.0,17.0,60,0.00,,,0.00,,2013-04-11 18:03:00,
2013-04-11 14:13:00,77.0,62.0,29.96,South,188,10.0,17.0,60,0.00,,,0.00,,2013-04-11 18:13:00,
2013-04-11 14:23:00,78.0,63.0,29.95,WSW,238,4.0,19.0,61,0.00,,,0.00,,2013-04-11 18:23:00,
2013-04-11 14:33:00,78.0,61.0,29.95,South,169,7.0,22.0,56,0.00,,,0.00,,2013-04-11 18:33:00,
2013-04-11 14:42:00,78.0,61.0,29.95,South,169,7.0,22.0,56,0.00,,,0.00,,2013-04-11 18:42:00,
2013-04-11 14:53:00,78.0,62.0,29.94,South,170,6.0,15.0,58,0.00,,,0.00,,2013-04-11 18:53:00,
2013-04-11 15:03:00,78.0,62.0,29.93,South,178,5.0,15.0,57,0.00,,,0.00,,2013-04-11 19:03:00,
2013-04-11 15:14:00,78.0,62.0,29.93,South,178,5.0,15.0,57,0.00,,,0.00,,2013-04-11 19:14:00,
2013-04-11 15:22:00,79.0,61.0,29.92,South,182,7.0,15.0,55,0.00,,,0.00,,2013-04-11 19:22:00,
2013-04-11 15:32:00,79.0,61.0,29.91,SSE,166,8.0,17.0,55,0.00,,,0.00,,2013-04-11 19:32:00,
2013-04-11 15:43:00,79.0,61.0,29.91,SSE,166,8.0,17.0,55,0.00,,,0.00,,2013-04-11 19:43:00,
2013-04-11 15:53:00,79.0,62.0,29.90,SW,230,4.0,12.0,56,0.00,,,0.00,,2013-04-11 19:53:00,
2013-04-11 16:02:00,79.0,61.0,29.90,SSE,165,3.0,15.0,55,0.00,,,0.00,,2013-04-11 20:02:00,
2013-04-11 16:13:00,79.0,61.0,29.90,SSE,165,3.0,15.0,55,0.00,,,0.00,,2013-04-11 20:13:00,
2013-04-11 16:22:00,79.0,62.0,29.88,South,188,3.0,10.0,56,0.00,,,0.00,,2013-04-11 20:22:00,
2013-04-11 16:33:00,79.0,62.0,29.88,South,189,4.0,12.0,56,0.00,,,0.00,,2013-04-11 20:33:00,
2013-04-11 16:43:00,79.0,62.0,29.88,South,189,4.0,12.0,56,0.00,,,0.00,,2013-04-11 20:43:00,
2013-04-11 16:53:00,79.0,63.0,29.86,South,190,2.0,17.0,58,0.00,,,0.00,,2013-04-11 20:53:00,
2013-04-11 17:03:00,80.0,62.0,29.86,South,184,6.0,12.0,54,0.00,,,0.00,,2013-04-11 21:03:00,
2013-04-11 17:12:00,80.0,62.0,29.86,South,184,6.0,12.0,54,0.00,,,0.00,,2013-04-11 21:12:00,
2013-04-11 17:22:00,80.0,63.0,29.85,SW,236,4.0,8.0,56,0.00,,,0.00,,2013-04-11 21:22:00,
2013-04-11 17:33:00,80.0,63.0,29.85,South,187,6.0,11.0,56,0.00,,,0.00,,2013-04-11 21:33:00,
2013-04-11 17:43:00,80.0,63.0,29.85,South,187,6.0,11.0,56,0.00,,,0.00,,2013-04-11 21:43:00,
2013-04-11 17:54:00,78.0,62.0,29.85,South,180,6.0,12.0,59,0.00,,,0.00,,2013-04-11 21:54:00,
2013-04-11 18:03:00,78.0,63.0,29.85,South,191,5.0,8.0,60,0.00,,,0.00,,2013-04-11 22:03:00,
2013-04-11 18:13:00,78.0,63.0,29.85,South,191,5.0,8.0,60,0.00,,,0.00,,2013-04-11 22:13:00,
2013-04-11 18:23:00,78.0,63.0,29.85,SSE,162,1.0,4.0,61,0.00,,,0.00,,2013-04-11 22:23:00,
2013-04-11 18:33:00,78.0,64.0,29.84,South,181,3.0,7.0,62,0.00,,,0.00,,2013-04-11 22:33:00,
2013-04-11 18:44:00,78.0,64.0,29.84,South,181,3.0,7.0,62,0.00,,,0.00,,2013-04-11 22:44:00,
2013-04-11 18:53:00,78.0,63.0,29.84,South,188,1.0,6.0,61,0.00,,,0.00,,2013-04-11 22:53:00,
2013-04-11 19:03:00,78.0,64.0,29.84,SSE,167,2.0,7.0,62,0.00,,,0.00,,2013-04-11 23:03:00,
2013-04-11 19:13:00,78.0,64.0,29.84,SSE,167,2.0,7.0,62,0.00,,,0.00,,2013-04-11 23:13:00,
2013-04-11 19:23:00,77.0,63.0,29.83,WSW,242,0.0,7.0,62,0.00,,,0.00,,2013-04-11 23:23:00,
2013-04-11 19:32:00,77.0,63.0,29.82,SSW,195,1.0,5.0,61,0.00,,,0.00,,2013-04-11 23:32:00,
2013-04-11 19:43:00,77.0,63.0,29.82,SSW,195,1.0,5.0,61,0.00,,,0.00,,2013-04-11 23:43:00,
2013-04-11 19:53:00,76.0,63.0,29.82,SSE,167,1.0,4.0,64,0.00,,,0.00,,2013-04-11 23:53:00,
2013-04-11 20:02:00,76.0,63.0,29.82,SSW,195,4.0,8.0,64,0.00,,,0.00,,2013-04-12 00:02:00,
2013-04-11 20:12:00,76.0,63.0,29.82,SSW,195,4.0,8.0,64,0.00,,,0.00,,2013-04-12 00:12:00,
2013-04-11 20:22:00,76.0,64.0,29.82,SSW,198,2.0,12.0,66,0.00,,,0.00,,2013-04-12 00:22:00,
2013-04-11 20:32:00,75.0,63.0,29.82,South,182,0.0,4.0,67,0.00,,,0.00,,2013-04-12 00:32:00,
2013-04-11 20:42:00,75.0,63.0,29.82,South,182,0.0,4.0,67,0.00,,,0.00,,2013-04-12 00:42:00,
2013-04-11 20:53:00,75.0,64.0,29.82,South,169,0.0,5.0,68,0.00,,,0.00,,2013-04-12 00:53:00,
2013-04-11 21:02:00,74.0,63.0,29.81,SW,220,0.0,5.0,69,0.00,,,0.00,,2013-04-12 01:02:00,
2013-04-11 21:12:00,74.0,63.0,29.81,SW,220,0.0,5.0,69,0.00,,,0.00,,2013-04-12 01:12:00,
2013-04-11 21:22:00,74.0,64.0,29.81,SSE,166,1.0,4.0,71,0.00,,,0.00,,2013-04-12 01:22:00,
2013-04-11 21:32:00,73.0,64.0,29.81,SSE,148,0.0,3.0,74,0.00,,,0.00,,2013-04-12 01:32:00,
2013-04-11 21:42:00,73.0,64.0,29.81,SSE,148,0.0,3.0,74,0.00,,,0.00,,2013-04-12 01:42:00,
2013-04-11 21:52:00,71.0,65.0,29.80,SSE,148,0.0,0.0,81,0.00,,,0.00,,2013-04-12 01:52:00,
2013-04-11 22:03:00,71.0,65.0,29.80,SSE,148,0.0,1.0,82,0.01,,,0.01,,2013-04-12 02:03:00,
2013-04-11 22:12:00,71.0,65.0,29.80,SSE,148,0.0,1.0,82,0.01,,,0.01,,2013-04-12 02:12:00,
2013-04-11 22:22:00,69.0,65.0,29.83,SW,225,4.0,7.0,88,0.06,,,0.06,,2013-04-12 02:22:00,
2013-04-11 22:32:00,67.0,65.0,29.82,SSE,167,7.0,20.0,92,0.30,,,0.30,,2013-04-12 02:32:00,
2013-04-11 22:42:00,67.0,65.0,29.82,SSE,167,7.0,20.0,92,0.30,,,0.30,,2013-04-12 02:42:00,
2013-04-11 22:52:00,67.0,65.0,29.81,SSE,149,7.0,13.0,94,0.30,,,0.30,,2013-04-12 02:52:00,
2013-04-11 23:02:00,67.0,65.0,29.81,SSE,155,4.0,8.0,94,0.29,,,0.30,,2013-04-12 03:02:00,
2013-04-11 23:12:00,67.0,65.0,29.81,SSE,155,4.0,8.0,94,0.29,,,0.30,,2013-04-12 03:12:00,
2013-04-11 23:22:00,67.0,65.0,29.81,SSE,168,3.0,15.0,94,0.22,,,0.30,,2013-04-12 03:22:00,
2013-04-11 23:33:00,67.0,65.0,29.80,SSW,202,2.0,8.0,94,0.00,,,0.30,,2013-04-12 03:33:00,
2013-04-11 23:43:00,67.0,65.0,29.80,SSW,202,2.0,8.0,94,0.00,,,0.30,,2013-04-12 03:43:00,
2013-04-11 23:53:00,67.0,66.0,29.81,South,184,4.0,7.0,95,0.00,,,0.30,,2013-04-12 03:53:00,